首页
METAR-TAF:

METAR-TAF

机场 :

佩奇, 匈牙利

纬度: 46-06N, 经度: 018-14E, 海拔: 201米

当前天气观测

该预报发布于4小时和10分钟前的17:45 UTC
风速10节,风向西转西北
温度 10°C
湿度 87%
气压 1015 hPa
能见度10公里或以上
多云层高于2000英尺

METAR: LHPP 311745Z 29010KT 9999 BKN020 10/08 Q1015

时间: 23:55 (21:55 UTC)

预报

该预报发布于7小时和40分钟前的14:15 UTC
预报有效从31日的 15点(UTC)到 31日的 24点(UTC)
风速10节,风向西北
能见度10公里或以上
散云层高于3500英尺
阴天层高于8000英尺
小雨
几率 40%
从 31日的 15点(UTC)到 31日的 21点(UTC)
能見度: 8000
多云层高于1500英尺
阴天层高于3000英尺
几率 40% :
短暂存在
从 31日的 21点(UTC)到 31日的 24点(UTC)
能見度: 5000
多云层高于1500英尺
散云层高于2500英尺, 塔状积云.
阵雨

TAF: LHPP 311415Z 3115/3124 32010KT 9999 -RA SCT035 OVC080 PROB40 3115/3121 8000 RA BKN015 OVC030 PROB40 TEMPO 3121/3124 5000 SHRA BKN015 SCT025TCU

超过4000个机场的气象观测和天气预报(METAR&TAF报告)。

可查询的气象台以黄色和红色小点在地图上表示。

将鼠标移到小点上方,可查看气象台名称。

然后点击查看天气观测和预报。

如需切换地图:点击带黑十字的绿色按钮放大地图;点击带横线的绿色按钮缩小地图;或者点击绿色箭头查看邻近地区的地图。


METAR-TAF: